sensor_id;sensor_type;location;lat;lon;timestamp;temperature;humidity
45137;DHT22;30894;51.740;19.498;2022-11-15T00:00:54;6.00;99.90
45137;DHT22;30894;51.740;19.498;2022-11-15T00:03:25;6.00;99.90
45137;DHT22;30894;51.740;19.498;2022-11-15T00:05:51;6.10;99.90
45137;DHT22;30894;51.740;19.498;2022-11-15T00:08:18;6.10;99.90
45137;DHT22;30894;51.740;19.498;2022-11-15T00:10:54;6.10;99.90
45137;DHT22;30894;51.740;19.498;2022-11-15T00:13:21;6.10;99.90
45137;DHT22;30894;51.740;19.498;2022-11-15T00:15:47;6.10;99.90
45137;DHT22;30894;51.740;19.498;2022-11-15T00:18:16;6.10;99.90
45137;DHT22;30894;51.740;19.498;2022-11-15T00:20:42;6.10;99.90
45137;DHT22;30894;51.740;19.498;2022-11-15T00:23:08;6.00;99.90
45137;DHT22;30894;51.740;19.498;2022-11-15T00:25:34;6.00;99.90
45137;DHT22;30894;51.740;19.498;2022-11-15T00:28:01;6.00;99.90
45137;DHT22;30894;51.740;19.498;2022-11-15T00:30:28;6.00;99.90
45137;DHT22;30894;51.740;19.498;2022-11-15T00:32:55;5.90;99.90
45137;DHT22;30894;51.740;19.498;2022-11-15T00:35:21;5.90;99.90
45137;DHT22;30894;51.740;19.498;2022-11-15T00:37:48;5.90;99.90
45137;DHT22;30894;51.740;19.498;2022-11-15T00:40:14;5.90;99.90
45137;DHT22;30894;51.740;19.498;2022-11-15T00:42:41;5.90;99.90
45137;DHT22;30894;51.740;19.498;2022-11-15T00:45:08;5.90;99.90
45137;DHT22;30894;51.740;19.498;2022-11-15T00:47:34;5.90;99.90
45137;DHT22;30894;51.740;19.498;2022-11-15T00:50:00;5.90;99.90
45137;DHT22;30894;51.740;19.498;2022-11-15T00:52:26;5.90;99.90
45137;DHT22;30894;51.740;19.498;2022-11-15T00:54:52;5.90;99.90
45137;DHT22;30894;51.740;19.498;2022-11-15T00:57:19;5.90;99.90
45137;DHT22;30894;51.740;19.498;2022-11-15T00:59:45;5.80;99.90
45137;DHT22;30894;51.740;19.498;2022-11-15T01:02:11;5.90;99.90
45137;DHT22;30894;51.740;19.498;2022-11-15T01:04:37;5.80;99.90
45137;DHT22;30894;51.740;19.498;2022-11-15T01:07:03;5.80;99.90
45137;DHT22;30894;51.740;19.498;2022-11-15T01:09:29;5.90;99.90
45137;DHT22;30894;51.740;19.498;2022-11-15T01:11:55;5.80;99.90
45137;DHT22;30894;51.740;19.498;2022-11-15T01:14:21;5.80;99.90
45137;DHT22;30894;51.740;19.498;2022-11-15T01:16:47;5.80;99.90
45137;DHT22;30894;51.740;19.498;2022-11-15T01:19:13;5.80;99.90
45137;DHT22;30894;51.740;19.498;2022-11-15T01:21:39;5.80;99.90
45137;DHT22;30894;51.740;19.498;2022-11-15T01:24:07;5.80;99.90
45137;DHT22;30894;51.740;19.498;2022-11-15T01:26:34;5.80;99.90
45137;DHT22;30894;51.740;19.498;2022-11-15T01:29:00;5.80;99.90
45137;DHT22;30894;51.740;19.498;2022-11-15T01:31:26;5.80;99.90
45137;DHT22;30894;51.740;19.498;2022-11-15T01:33:52;5.80;99.90
45137;DHT22;30894;51.740;19.498;2022-11-15T01:36:21;5.80;99.90
45137;DHT22;30894;51.740;19.498;2022-11-15T01:38:53;5.80;99.90
45137;DHT22;30894;51.740;19.498;2022-11-15T01:41:28;5.80;99.90
45137;DHT22;30894;51.740;19.498;2022-11-15T01:47:05;5.80;99.90
45137;DHT22;30894;51.740;19.498;2022-11-15T01:49:38;5.80;99.90
45137;DHT22;30894;51.740;19.498;2022-11-15T01:52:10;5.80;99.90
45137;DHT22;30894;51.740;19.498;2022-11-15T01:54:42;5.80;99.90
45137;DHT22;30894;51.740;19.498;2022-11-15T01:57:12;5.80;99.90
45137;DHT22;30894;51.740;19.498;2022-11-15T01:59:42;5.80;99.90
45137;DHT22;30894;51.740;19.498;2022-11-15T02:02:09;5.80;99.90
45137;DHT22;30894;51.740;19.498;2022-11-15T02:04:41;5.80;99.90
45137;DHT22;30894;51.740;19.498;2022-11-15T02:07:09;5.80;99.90
45137;DHT22;30894;51.740;19.498;2022-11-15T02:09:38;5.70;99.90
45137;DHT22;30894;51.740;19.498;2022-11-15T02:12:05;5.70;99.90
45137;DHT22;30894;51.740;19.498;2022-11-15T02:14:33;5.70;99.90
45137;DHT22;30894;51.740;19.498;2022-11-15T02:37:15;5.60;99.90
45137;DHT22;30894;51.740;19.498;2022-11-15T02:42:27;5.50;99.90
45137;DHT22;30894;51.740;19.498;2022-11-15T02:45:21;5.60;99.90
45137;DHT22;30894;51.740;19.498;2022-11-15T02:47:54;5.50;99.90
45137;DHT22;30894;51.740;19.498;2022-11-15T02:50:25;5.50;99.90
45137;DHT22;30894;51.740;19.498;2022-11-15T02:53:16;5.50;99.90
45137;DHT22;30894;51.740;19.498;2022-11-15T02:55:46;5.50;99.90
45137;DHT22;30894;51.740;19.498;2022-11-15T03:07:36;5.60;99.90
45137;DHT22;30894;51.740;19.498;2022-11-15T03:12:56;5.50;99.90
45137;DHT22;30894;51.740;19.498;2022-11-15T03:15:33;5.50;99.90
45137;DHT22;30894;51.740;19.498;2022-11-15T03:18:32;5.50;99.90
45137;DHT22;30894;51.740;19.498;2022-11-15T03:21:04;5.50;99.90
45137;DHT22;30894;51.740;19.498;2022-11-15T03:23:33;5.50;99.90
45137;DHT22;30894;51.740;19.498;2022-11-15T03:26:06;5.50;99.90
45137;DHT22;30894;51.740;19.498;2022-11-15T03:28:54;5.50;99.90
45137;DHT22;30894;51.740;19.498;2022-11-15T03:31:23;5.60;99.90
45137;DHT22;30894;51.740;19.498;2022-11-15T03:37:04;5.60;99.90
45137;DHT22;30894;51.740;19.498;2022-11-15T03:39:32;5.60;99.90
45137;DHT22;30894;51.740;19.498;2022-11-15T03:58:12;5.60;99.90
45137;DHT22;30894;51.740;19.498;2022-11-15T04:00:39;5.60;99.90
45137;DHT22;30894;51.740;19.498;2022-11-15T04:03:05;5.60;99.90
45137;DHT22;30894;51.740;19.498;2022-11-15T04:12:45;5.50;99.90
45137;DHT22;30894;51.740;19.498;2022-11-15T04:15:21;5.50;99.90
45137;DHT22;30894;51.740;19.498;2022-11-15T04:17:51;5.50;99.90
45137;DHT22;30894;51.740;19.498;2022-11-15T04:24:34;5.50;99.90
45137;DHT22;30894;51.740;19.498;2022-11-15T04:27:01;5.50;99.90
45137;DHT22;30894;51.740;19.498;2022-11-15T04:29:27;5.60;99.90
45137;DHT22;30894;51.740;19.498;2022-11-15T04:32:02;5.60;99.90
45137;DHT22;30894;51.740;19.498;2022-11-15T04:34:31;5.60;99.90
45137;DHT22;30894;51.740;19.498;2022-11-15T04:36:58;5.60;99.90
45137;DHT22;30894;51.740;19.498;2022-11-15T04:39:41;5.60;99.90
45137;DHT22;30894;51.740;19.498;2022-11-15T04:42:09;5.60;99.90
45137;DHT22;30894;51.740;19.498;2022-11-15T04:44:35;5.60;99.90
45137;DHT22;30894;51.740;19.498;2022-11-15T04:47:04;5.50;99.90
45137;DHT22;30894;51.740;19.498;2022-11-15T04:49:30;5.60;99.90
45137;DHT22;30894;51.740;19.498;2022-11-15T04:59:34;5.40;99.90
45137;DHT22;30894;51.740;19.498;2022-11-15T05:02:00;5.40;99.90
45137;DHT22;30894;51.740;19.498;2022-11-15T05:04:26;5.40;99.90
45137;DHT22;30894;51.740;19.498;2022-11-15T05:06:52;5.40;99.90
45137;DHT22;30894;51.740;19.498;2022-11-15T05:09:23;5.40;99.90
45137;DHT22;30894;51.740;19.498;2022-11-15T05:11:49;5.40;99.90
45137;DHT22;30894;51.740;19.498;2022-11-15T05:14:16;5.40;99.90
45137;DHT22;30894;51.740;19.498;2022-11-15T05:16:42;5.40;99.90
45137;DHT22;30894;51.740;19.498;2022-11-15T05:19:09;5.40;99.90
45137;DHT22;30894;51.740;19.498;2022-11-15T05:21:35;5.40;99.90
45137;DHT22;30894;51.740;19.498;2022-11-15T05:32:09;5.20;99.90
45137;DHT22;30894;51.740;19.498;2022-11-15T05:34:36;5.20;99.90
45137;DHT22;30894;51.740;19.498;2022-11-15T05:37:03;5.20;99.90
45137;DHT22;30894;51.740;19.498;2022-11-15T05:39:30;5.20;99.90
45137;DHT22;30894;51.740;19.498;2022-11-15T05:42:00;5.10;99.90
45137;DHT22;30894;51.740;19.498;2022-11-15T05:44:36;5.10;99.90
45137;DHT22;30894;51.740;19.498;2022-11-15T05:47:05;5.10;99.90
45137;DHT22;30894;51.740;19.498;2022-11-15T05:49:33;5.00;99.90
45137;DHT22;30894;51.740;19.498;2022-11-15T05:52:04;5.00;99.90
45137;DHT22;30894;51.740;19.498;2022-11-15T05:54:32;5.00;99.90
45137;DHT22;30894;51.740;19.498;2022-11-15T05:56:59;5.00;99.90
45137;DHT22;30894;51.740;19.498;2022-11-15T05:59:27;5.00;99.90
45137;DHT22;30894;51.740;19.498;2022-11-15T06:01:54;4.90;99.90
45137;DHT22;30894;51.740;19.498;2022-11-15T06:04:20;5.00;99.90
45137;DHT22;30894;51.740;19.498;2022-11-15T06:06:46;4.90;99.90
45137;DHT22;30894;51.740;19.498;2022-11-15T06:09:13;4.90;99.90
45137;DHT22;30894;51.740;19.498;2022-11-15T06:11:39;4.90;99.90
45137;DHT22;30894;51.740;19.498;2022-11-15T06:14:05;4.90;99.90
45137;DHT22;30894;51.740;19.498;2022-11-15T06:16:31;4.90;99.90
45137;DHT22;30894;51.740;19.498;2022-11-15T06:18:57;4.90;99.90
45137;DHT22;30894;51.740;19.498;2022-11-15T06:21:24;4.80;99.90
45137;DHT22;30894;51.740;19.498;2022-11-15T06:23:50;4.90;99.90
45137;DHT22;30894;51.740;19.498;2022-11-15T06:26:16;4.90;99.90
45137;DHT22;30894;51.740;19.498;2022-11-15T06:28:42;4.90;99.90
45137;DHT22;30894;51.740;19.498;2022-11-15T06:31:10;4.90;99.90
45137;DHT22;30894;51.740;19.498;2022-11-15T06:33:40;4.90;99.90
45137;DHT22;30894;51.740;19.498;2022-11-15T06:36:09;4.90;99.90
45137;DHT22;30894;51.740;19.498;2022-11-15T06:38:40;5.00;99.90
45137;DHT22;30894;51.740;19.498;2022-11-15T06:41:09;5.00;99.90
45137;DHT22;30894;51.740;19.498;2022-11-15T06:43:36;5.00;99.90
45137;DHT22;30894;51.740;19.498;2022-11-15T06:46:04;5.00;99.90
45137;DHT22;30894;51.740;19.498;2022-11-15T06:48:32;5.00;99.90
45137;DHT22;30894;51.740;19.498;2022-11-15T06:51:00;5.00;99.90
45137;DHT22;30894;51.740;19.498;2022-11-15T06:53:28;5.00;99.90
45137;DHT22;30894;51.740;19.498;2022-11-15T06:56:02;5.00;99.90
45137;DHT22;30894;51.740;19.498;2022-11-15T06:58:30;5.00;99.90
45137;DHT22;30894;51.740;19.498;2022-11-15T07:01:08;5.10;99.90
45137;DHT22;30894;51.740;19.498;2022-11-15T07:03:41;5.20;99.90
45137;DHT22;30894;51.740;19.498;2022-11-15T07:06:08;5.30;99.90
45137;DHT22;30894;51.740;19.498;2022-11-15T07:08:36;5.30;99.90
45137;DHT22;30894;51.740;19.498;2022-11-15T07:11:05;5.40;99.90
45137;DHT22;30894;51.740;19.498;2022-11-15T07:13:32;5.40;99.90
45137;DHT22;30894;51.740;19.498;2022-11-15T07:16:08;5.50;99.90
45137;DHT22;30894;51.740;19.498;2022-11-15T07:18:36;5.50;99.90
45137;DHT22;30894;51.740;19.498;2022-11-15T07:21:04;5.50;99.90
45137;DHT22;30894;51.740;19.498;2022-11-15T07:23:32;5.50;99.90
45137;DHT22;30894;51.740;19.498;2022-11-15T07:25:58;5.50;99.90
45137;DHT22;30894;51.740;19.498;2022-11-15T07:28:26;5.50;99.90
45137;DHT22;30894;51.740;19.498;2022-11-15T07:30:55;5.60;99.90
45137;DHT22;30894;51.740;19.498;2022-11-15T07:33:24;5.60;99.90
45137;DHT22;30894;51.740;19.498;2022-11-15T07:35:50;5.70;99.90
45137;DHT22;30894;51.740;19.498;2022-11-15T07:38:17;5.90;99.90
45137;DHT22;30894;51.740;19.498;2022-11-15T07:40:45;6.50;99.90
45137;DHT22;30894;51.740;19.498;2022-11-15T07:43:12;7.10;99.90
45137;DHT22;30894;51.740;19.498;2022-11-15T07:45:43;7.80;99.90
45137;DHT22;30894;51.740;19.498;2022-11-15T07:48:10;8.40;99.90
45137;DHT22;30894;51.740;19.498;2022-11-15T07:50:40;8.90;99.90
45137;DHT22;30894;51.740;19.498;2022-11-15T07:53:10;9.50;99.90
45137;DHT22;30894;51.740;19.498;2022-11-15T07:55:39;10.00;99.90
45137;DHT22;30894;51.740;19.498;2022-11-15T07:58:09;10.30;99.90
45137;DHT22;30894;51.740;19.498;2022-11-15T08:00:37;10.70;99.90
45137;DHT22;30894;51.740;19.498;2022-11-15T08:03:09;11.00;99.90
45137;DHT22;30894;51.740;19.498;2022-11-15T08:05:38;11.30;99.90
45137;DHT22;30894;51.740;19.498;2022-11-15T08:08:06;11.50;99.90
45137;DHT22;30894;51.740;19.498;2022-11-15T08:10:33;11.80;99.90
45137;DHT22;30894;51.740;19.498;2022-11-15T08:13:04;12.00;99.90
45137;DHT22;30894;51.740;19.498;2022-11-15T08:15:32;12.20;99.90
45137;DHT22;30894;51.740;19.498;2022-11-15T08:18:01;12.60;99.90
45137;DHT22;30894;51.740;19.498;2022-11-15T08:20:30;13.00;99.90
45137;DHT22;30894;51.740;19.498;2022-11-15T08:22:58;13.40;99.90
45137;DHT22;30894;51.740;19.498;2022-11-15T08:25:26;13.80;99.90
45137;DHT22;30894;51.740;19.498;2022-11-15T08:27:56;14.00;99.90
45137;DHT22;30894;51.740;19.498;2022-11-15T08:30:24;14.20;99.90
45137;DHT22;30894;51.740;19.498;2022-11-15T08:33:00;14.40;99.90
45137;DHT22;30894;51.740;19.498;2022-11-15T08:35:26;14.50;99.90
45137;DHT22;30894;51.740;19.498;2022-11-15T08:37:53;14.60;99.90
45137;DHT22;30894;51.740;19.498;2022-11-15T08:40:20;14.80;99.90
45137;DHT22;30894;51.740;19.498;2022-11-15T08:42:49;14.90;99.90
45137;DHT22;30894;51.740;19.498;2022-11-15T08:45:16;14.90;99.90
45137;DHT22;30894;51.740;19.498;2022-11-15T08:47:43;15.00;99.90
45137;DHT22;30894;51.740;19.498;2022-11-15T08:50:10;15.00;99.90
45137;DHT22;30894;51.740;19.498;2022-11-15T08:52:37;15.20;99.90
45137;DHT22;30894;51.740;19.498;2022-11-15T08:55:05;15.30;99.90
45137;DHT22;30894;51.740;19.498;2022-11-15T08:57:37;15.40;99.90
45137;DHT22;30894;51.740;19.498;2022-11-15T09:00:04;15.60;99.90
45137;DHT22;30894;51.740;19.498;2022-11-15T09:02:32;15.70;99.90
45137;DHT22;30894;51.740;19.498;2022-11-15T09:04:59;15.90;99.90
45137;DHT22;30894;51.740;19.498;2022-11-15T09:07:25;16.00;99.50
45137;DHT22;30894;51.740;19.498;2022-11-15T09:09:52;16.00;99.50
45137;DHT22;30894;51.740;19.498;2022-11-15T09:12:32;16.30;98.90
45137;DHT22;30894;51.740;19.498;2022-11-15T09:15:00;16.40;98.60
45137;DHT22;30894;51.740;19.498;2022-11-15T09:17:27;16.50;98.00
45137;DHT22;30894;51.740;19.498;2022-11-15T09:19:54;16.50;97.90
45137;DHT22;30894;51.740;19.498;2022-11-15T09:22:21;16.40;98.00
45137;DHT22;30894;51.740;19.498;2022-11-15T09:24:47;16.50;97.90
45137;DHT22;30894;51.740;19.498;2022-11-15T09:27:14;16.80;97.50
45137;DHT22;30894;51.740;19.498;2022-11-15T09:29:40;17.10;96.80
45137;DHT22;30894;51.740;19.498;2022-11-15T09:32:07;17.30;96.30
45137;DHT22;30894;51.740;19.498;2022-11-15T09:34:34;17.50;95.70
45137;DHT22;30894;51.740;19.498;2022-11-15T09:37:02;17.70;95.40
45137;DHT22;30894;51.740;19.498;2022-11-15T09:39:28;18.00;94.90
45137;DHT22;30894;51.740;19.498;2022-11-15T09:42:20;18.40;94.30
45137;DHT22;30894;51.740;19.498;2022-11-15T09:48:14;18.50;93.70
45137;DHT22;30894;51.740;19.498;2022-11-15T09:50:51;18.50;93.60
45137;DHT22;30894;51.740;19.498;2022-11-15T09:56:31;18.50;93.80
45137;DHT22;30894;51.740;19.498;2022-11-15T10:05:11;19.00;93.30
45137;DHT22;30894;51.740;19.498;2022-11-15T10:11:01;19.40;92.20
45137;DHT22;30894;51.740;19.498;2022-11-15T10:13:33;19.50;92.20
45137;DHT22;30894;51.740;19.498;2022-11-15T10:24:50;19.70;91.50
45137;DHT22;30894;51.740;19.498;2022-11-15T10:27:41;19.70;91.60
45137;DHT22;30894;51.740;19.498;2022-11-15T10:30:14;19.90;91.50
45137;DHT22;30894;51.740;19.498;2022-11-15T10:32:44;20.10;91.60
45137;DHT22;30894;51.740;19.498;2022-11-15T10:35:20;20.50;91.50
45137;DHT22;30894;51.740;19.498;2022-11-15T10:38:12;20.70;91.10
45137;DHT22;30894;51.740;19.498;2022-11-15T10:40:40;20.80;91.00
45137;DHT22;30894;51.740;19.498;2022-11-15T10:45:37;20.80;90.40
45137;DHT22;30894;51.740;19.498;2022-11-15T10:50:40;20.60;90.40
45137;DHT22;30894;51.740;19.498;2022-11-15T10:53:29;20.70;90.70
45137;DHT22;30894;51.740;19.498;2022-11-15T10:56:02;21.00;90.60
45137;DHT22;30894;51.740;19.498;2022-11-15T10:58:41;21.10;90.40
45137;DHT22;30894;51.740;19.498;2022-11-15T11:03:45;21.50;90.30
45137;DHT22;30894;51.740;19.498;2022-11-15T11:09:34;21.90;90.00
45137;DHT22;30894;51.740;19.498;2022-11-15T11:12:03;22.10;89.50
45137;DHT22;30894;51.740;19.498;2022-11-15T11:14:33;22.40;88.70
45137;DHT22;30894;51.740;19.498;2022-11-15T11:25:24;22.40;87.60
45137;DHT22;30894;51.740;19.498;2022-11-15T11:28:21;22.60;88.00
45137;DHT22;30894;51.740;19.498;2022-11-15T11:33:44;22.80;86.70
45137;DHT22;30894;51.740;19.498;2022-11-15T11:36:40;22.60;87.30
45137;DHT22;30894;51.740;19.498;2022-11-15T11:48:28;23.00;87.30
45137;DHT22;30894;51.740;19.498;2022-11-15T11:51:27;22.90;87.20
45137;DHT22;30894;51.740;19.498;2022-11-15T11:53:56;22.80;87.60
45137;DHT22;30894;51.740;19.498;2022-11-15T11:56:34;22.80;87.30
45137;DHT22;30894;51.740;19.498;2022-11-15T11:59:16;22.90;87.20
45137;DHT22;30894;51.740;19.498;2022-11-15T12:01:49;22.80;87.30
45137;DHT22;30894;51.740;19.498;2022-11-15T12:04:38;23.00;87.30
45137;DHT22;30894;51.740;19.498;2022-11-15T12:07:39;23.10;87.30
45137;DHT22;30894;51.740;19.498;2022-11-15T12:13:00;22.90;88.00
45137;DHT22;30894;51.740;19.498;2022-11-15T12:15:32;23.10;88.70
45137;DHT22;30894;51.740;19.498;2022-11-15T12:18:02;23.10;88.30
45137;DHT22;30894;51.740;19.498;2022-11-15T12:20:33;23.00;88.60
45137;DHT22;30894;51.740;19.498;2022-11-15T12:23:25;23.10;88.40
45137;DHT22;30894;51.740;19.498;2022-11-15T12:26:02;22.90;89.10
45137;DHT22;30894;51.740;19.498;2022-11-15T12:31:36;23.00;88.90
45137;DHT22;30894;51.740;19.498;2022-11-15T12:36:47;22.90;89.10
45137;DHT22;30894;51.740;19.498;2022-11-15T12:39:16;22.60;90.00
45137;DHT22;30894;51.740;19.498;2022-11-15T12:41:44;22.40;90.40
45137;DHT22;30894;51.740;19.498;2022-11-15T12:59:59;22.20;91.40
45137;DHT22;30894;51.740;19.498;2022-11-15T13:02:39;22.00;91.70
45137;DHT22;30894;51.740;19.498;2022-11-15T13:12:56;21.50;92.30
45137;DHT22;30894;51.740;19.498;2022-11-15T13:15:53;21.20;92.70
45137;DHT22;30894;51.740;19.498;2022-11-15T13:21:19;20.50;94.00
45137;DHT22;30894;51.740;19.498;2022-11-15T13:24:13;20.10;94.60
45137;DHT22;30894;51.740;19.498;2022-11-15T13:26:42;19.70;95.70
45137;DHT22;30894;51.740;19.498;2022-11-15T13:29:16;19.50;96.70
45137;DHT22;30894;51.740;19.498;2022-11-15T13:31:44;19.20;97.40
45137;DHT22;30894;51.740;19.498;2022-11-15T13:34:29;18.90;98.20
45137;DHT22;30894;51.740;19.498;2022-11-15T13:37:02;18.60;99.10
45137;DHT22;30894;51.740;19.498;2022-11-15T13:39:31;18.40;99.90
45137;DHT22;30894;51.740;19.498;2022-11-15T13:42:00;18.20;99.90
45137;DHT22;30894;51.740;19.498;2022-11-15T13:44:28;18.00;99.90
45137;DHT22;30894;51.740;19.498;2022-11-15T13:47:18;17.70;99.90
45137;DHT22;30894;51.740;19.498;2022-11-15T13:49:45;17.50;99.90
45137;DHT22;30894;51.740;19.498;2022-11-15T13:52:15;17.30;99.90
45137;DHT22;30894;51.740;19.498;2022-11-15T13:55:11;17.10;99.90
45137;DHT22;30894;51.740;19.498;2022-11-15T13:57:46;16.80;99.90
45137;DHT22;30894;51.740;19.498;2022-11-15T14:02:54;16.40;99.90
45137;DHT22;30894;51.740;19.498;2022-11-15T14:05:25;16.10;99.90
45137;DHT22;30894;51.740;19.498;2022-11-15T14:08:38;15.90;99.90
45137;DHT22;30894;51.740;19.498;2022-11-15T14:10:45;15.70;99.90
45137;DHT22;30894;51.740;19.498;2022-11-15T14:13:29;15.40;99.90
45137;DHT22;30894;51.740;19.498;2022-11-15T14:16:16;15.10;99.90
45137;DHT22;30894;51.740;19.498;2022-11-15T14:18:50;14.70;99.90
45137;DHT22;30894;51.740;19.498;2022-11-15T14:21:21;14.30;99.90
45137;DHT22;30894;51.740;19.498;2022-11-15T14:23:47;14.10;99.90
45137;DHT22;30894;51.740;19.498;2022-11-15T14:26:30;13.80;99.90
45137;DHT22;30894;51.740;19.498;2022-11-15T14:29:27;13.50;99.90
45137;DHT22;30894;51.740;19.498;2022-11-15T14:32:22;13.20;99.90
45137;DHT22;30894;51.740;19.498;2022-11-15T14:35:01;12.90;99.90
45137;DHT22;30894;51.740;19.498;2022-11-15T14:37:30;12.60;99.90
45137;DHT22;30894;51.740;19.498;2022-11-15T14:40:01;12.40;99.90
45137;DHT22;30894;51.740;19.498;2022-11-15T14:42:29;12.10;99.90
45137;DHT22;30894;51.740;19.498;2022-11-15T14:44:57;11.80;99.90
45137;DHT22;30894;51.740;19.498;2022-11-15T14:47:23;11.50;99.90
45137;DHT22;30894;51.740;19.498;2022-11-15T14:49:50;11.20;99.90
45137;DHT22;30894;51.740;19.498;2022-11-15T14:52:26;10.90;99.90
45137;DHT22;30894;51.740;19.498;2022-11-15T14:54:55;10.60;99.90
45137;DHT22;30894;51.740;19.498;2022-11-15T14:57:24;10.20;99.90
45137;DHT22;30894;51.740;19.498;2022-11-15T14:59:50;9.80;99.90
45137;DHT22;30894;51.740;19.498;2022-11-15T15:02:23;9.40;99.90
45137;DHT22;30894;51.740;19.498;2022-11-15T15:04:55;9.10;99.90
45137;DHT22;30894;51.740;19.498;2022-11-15T15:07:21;8.90;99.90
45137;DHT22;30894;51.740;19.498;2022-11-15T15:09:47;8.60;99.90
45137;DHT22;30894;51.740;19.498;2022-11-15T15:12:22;8.40;99.90
45137;DHT22;30894;51.740;19.498;2022-11-15T15:14:50;8.10;99.90
45137;DHT22;30894;51.740;19.498;2022-11-15T15:17:17;8.00;99.90
45137;DHT22;30894;51.740;19.498;2022-11-15T15:19:44;7.70;99.90
45137;DHT22;30894;51.740;19.498;2022-11-15T15:22:15;7.70;99.90
45137;DHT22;30894;51.740;19.498;2022-11-15T15:24:43;7.40;99.90
45137;DHT22;30894;51.740;19.498;2022-11-15T15:27:10;7.30;99.90
45137;DHT22;30894;51.740;19.498;2022-11-15T15:29:39;7.20;99.90
45137;DHT22;30894;51.740;19.498;2022-11-15T15:32:06;7.00;99.90
45137;DHT22;30894;51.740;19.498;2022-11-15T15:34:33;6.80;99.90
45137;DHT22;30894;51.740;19.498;2022-11-15T15:37:26;6.60;99.90
45137;DHT22;30894;51.740;19.498;2022-11-15T15:39:56;6.50;99.90
45137;DHT22;30894;51.740;19.498;2022-11-15T15:42:23;6.40;99.90
45137;DHT22;30894;51.740;19.498;2022-11-15T15:44:50;6.30;99.90
45137;DHT22;30894;51.740;19.498;2022-11-15T15:47:22;6.10;99.90
45137;DHT22;30894;51.740;19.498;2022-11-15T15:49:50;6.00;99.90
45137;DHT22;30894;51.740;19.498;2022-11-15T15:52:17;5.90;99.90
45137;DHT22;30894;51.740;19.498;2022-11-15T15:54:43;5.70;99.90
45137;DHT22;30894;51.740;19.498;2022-11-15T15:57:12;5.70;99.90
45137;DHT22;30894;51.740;19.498;2022-11-15T15:59:39;5.40;99.90
45137;DHT22;30894;51.740;19.498;2022-11-15T16:02:09;5.40;99.90
45137;DHT22;30894;51.740;19.498;2022-11-15T16:04:43;5.30;99.90
45137;DHT22;30894;51.740;19.498;2022-11-15T16:07:31;5.20;99.90
45137;DHT22;30894;51.740;19.498;2022-11-15T16:09:57;5.20;99.90
45137;DHT22;30894;51.740;19.498;2022-11-15T16:12:33;5.10;99.90
45137;DHT22;30894;51.740;19.498;2022-11-15T16:15:00;5.00;99.90
45137;DHT22;30894;51.740;19.498;2022-11-15T16:17:33;4.90;99.90
45137;DHT22;30894;51.740;19.498;2022-11-15T16:20:04;4.80;99.90
45137;DHT22;30894;51.740;19.498;2022-11-15T16:22:33;4.80;99.90
45137;DHT22;30894;51.740;19.498;2022-11-15T16:25:01;4.70;99.90
45137;DHT22;30894;51.740;19.498;2022-11-15T16:27:27;4.60;99.90
45137;DHT22;30894;51.740;19.498;2022-11-15T16:29:53;4.50;99.90
45137;DHT22;30894;51.740;19.498;2022-11-15T16:32:20;4.50;99.90
45137;DHT22;30894;51.740;19.498;2022-11-15T16:34:48;4.40;99.90
45137;DHT22;30894;51.740;19.498;2022-11-15T16:37:24;4.30;99.90
45137;DHT22;30894;51.740;19.498;2022-11-15T16:39:50;4.20;99.90
45137;DHT22;30894;51.740;19.498;2022-11-15T16:42:17;4.10;99.90
45137;DHT22;30894;51.740;19.498;2022-11-15T16:44:43;4.00;99.90
45137;DHT22;30894;51.740;19.498;2022-11-15T16:47:19;4.00;99.90
45137;DHT22;30894;51.740;19.498;2022-11-15T16:49:45;3.90;99.90
45137;DHT22;30894;51.740;19.498;2022-11-15T16:52:12;3.90;99.90
45137;DHT22;30894;51.740;19.498;2022-11-15T16:54:38;3.80;99.90
45137;DHT22;30894;51.740;19.498;2022-11-15T16:57:07;3.70;99.90
45137;DHT22;30894;51.740;19.498;2022-11-15T16:59:35;3.70;99.90
45137;DHT22;30894;51.740;19.498;2022-11-15T17:02:02;3.60;99.90
45137;DHT22;30894;51.740;19.498;2022-11-15T17:04:28;3.60;99.90
45137;DHT22;30894;51.740;19.498;2022-11-15T17:07:02;3.50;99.90
45137;DHT22;30894;51.740;19.498;2022-11-15T17:09:29;3.40;99.90
45137;DHT22;30894;51.740;19.498;2022-11-15T17:11:56;3.40;99.90
45137;DHT22;30894;51.740;19.498;2022-11-15T17:14:22;3.20;99.90
45137;DHT22;30894;51.740;19.498;2022-11-15T17:16:49;3.20;99.90
45137;DHT22;30894;51.740;19.498;2022-11-15T17:19:18;3.10;99.90
45137;DHT22;30894;51.740;19.498;2022-11-15T17:21:47;3.00;99.90
45137;DHT22;30894;51.740;19.498;2022-11-15T17:24:16;3.00;99.90
45137;DHT22;30894;51.740;19.498;2022-11-15T17:26:43;2.90;99.90
45137;DHT22;30894;51.740;19.498;2022-11-15T17:29:09;2.90;99.90
45137;DHT22;30894;51.740;19.498;2022-11-15T17:31:39;2.80;99.90
45137;DHT22;30894;51.740;19.498;2022-11-15T17:34:07;2.80;99.90
45137;DHT22;30894;51.740;19.498;2022-11-15T17:36:34;2.70;99.90
45137;DHT22;30894;51.740;19.498;2022-11-15T17:39:01;2.60;99.90
45137;DHT22;30894;51.740;19.498;2022-11-15T17:41:29;2.60;99.90
45137;DHT22;30894;51.740;19.498;2022-11-15T17:43:57;2.50;99.90
45137;DHT22;30894;51.740;19.498;2022-11-15T17:46:27;2.50;99.90
45137;DHT22;30894;51.740;19.498;2022-11-15T17:48:54;2.50;99.90
45137;DHT22;30894;51.740;19.498;2022-11-15T17:51:22;2.40;99.90
45137;DHT22;30894;51.740;19.498;2022-11-15T17:53:51;2.40;99.90
45137;DHT22;30894;51.740;19.498;2022-11-15T17:56:20;2.40;99.90
45137;DHT22;30894;51.740;19.498;2022-11-15T17:58:52;2.40;99.90
45137;DHT22;30894;51.740;19.498;2022-11-15T18:01:27;2.40;99.90
45137;DHT22;30894;51.740;19.498;2022-11-15T18:04:07;2.30;99.90
45137;DHT22;30894;51.740;19.498;2022-11-15T18:06:36;2.20;99.90
45137;DHT22;30894;51.740;19.498;2022-11-15T18:09:03;2.20;99.90
45137;DHT22;30894;51.740;19.498;2022-11-15T18:11:41;2.10;99.90
45137;DHT22;30894;51.740;19.498;2022-11-15T18:14:12;2.10;99.90
45137;DHT22;30894;51.740;19.498;2022-11-15T18:16:40;2.10;99.90
45137;DHT22;30894;51.740;19.498;2022-11-15T18:19:07;2.00;99.90
45137;DHT22;30894;51.740;19.498;2022-11-15T18:21:44;1.90;99.90
45137;DHT22;30894;51.740;19.498;2022-11-15T18:24:23;1.90;99.90
45137;DHT22;30894;51.740;19.498;2022-11-15T18:26:52;1.70;99.90
45137;DHT22;30894;51.740;19.498;2022-11-15T18:29:19;1.80;99.90
45137;DHT22;30894;51.740;19.498;2022-11-15T18:31:46;1.80;99.90
45137;DHT22;30894;51.740;19.498;2022-11-15T18:34:15;1.80;99.90
45137;DHT22;30894;51.740;19.498;2022-11-15T18:36:42;1.90;99.90
45137;DHT22;30894;51.740;19.498;2022-11-15T18:39:09;2.00;99.90
45137;DHT22;30894;51.740;19.498;2022-11-15T18:41:43;2.10;99.90
45137;DHT22;30894;51.740;19.498;2022-11-15T18:44:11;2.20;99.90